createdAt,value
2023-03-01T00:02:38.474Z,99.90
2023-03-01T00:07:41.204Z,99.90
2023-03-01T00:12:45.213Z,99.90
2023-03-01T00:17:47.905Z,99.90
2023-03-01T00:22:50.936Z,99.90
2023-03-01T00:27:58.405Z,99.90
2023-03-01T00:33:01.305Z,99.90
2023-03-01T00:38:04.946Z,99.90
2023-03-01T00:43:08.924Z,99.90
2023-03-01T00:48:11.624Z,99.90
2023-03-01T00:53:14.266Z,99.90
2023-03-01T00:58:18.238Z,99.90
2023-03-01T01:03:21.159Z,99.90
2023-03-01T01:08:23.887Z,99.90
2023-03-01T01:13:27.977Z,99.90
2023-03-01T01:18:31.035Z,99.90
2023-03-01T01:23:33.783Z,99.90
2023-03-01T01:28:37.961Z,99.90
2023-03-01T01:33:40.703Z,99.90
2023-03-01T01:38:44.096Z,99.90
2023-03-01T01:43:50.813Z,99.90
2023-03-01T01:48:57.903Z,99.90
2023-03-01T01:54:02.868Z,99.90
2023-03-01T01:59:07.520Z,99.90
2023-03-01T02:04:10.338Z,99.90
2023-03-01T02:09:16.091Z,99.90
2023-03-01T02:14:20.509Z,99.90
2023-03-01T02:19:35.010Z,99.90
2023-03-01T02:24:48.487Z,99.90
2023-03-01T02:29:52.548Z,99.90
2023-03-01T02:34:57.183Z,99.90
2023-03-01T02:40:04.713Z,99.90
2023-03-01T02:45:09.356Z,99.90
2023-03-01T02:50:31.005Z,99.90
2023-03-01T02:55:33.669Z,99.90
2023-03-01T03:00:40.970Z,99.90
2023-03-01T03:05:43.968Z,99.90
2023-03-01T03:10:46.743Z,99.90
2023-03-01T03:15:50.954Z,99.90
2023-03-01T03:20:55.299Z,99.90
2023-03-01T03:25:57.973Z,99.90
2023-03-01T03:31:05.237Z,99.90
2023-03-01T03:36:13.917Z,99.90
2023-03-01T03:41:17.228Z,99.90
2023-03-01T03:46:21.259Z,99.90
2023-03-01T03:51:24.069Z,99.90
2023-03-01T03:56:28.593Z,99.90
2023-03-01T04:01:32.956Z,99.90
2023-03-01T04:06:35.716Z,99.90
2023-03-01T04:11:39.686Z,99.90
2023-03-01T04:16:43.701Z,99.90
2023-03-01T04:21:46.729Z,99.90
2023-03-01T04:26:49.530Z,99.90
2023-03-01T04:31:54.835Z,99.90
2023-03-01T04:36:58.126Z,99.90
2023-03-01T04:42:00.776Z,99.90
2023-03-01T05:06:09.468Z,99.90
2023-03-01T05:23:36.246Z,99.90
2023-03-01T05:29:42.857Z,99.90
2023-03-01T06:05:53.587Z,99.90
2023-03-01T06:11:25.010Z,99.90
2023-03-01T06:17:54.976Z,99.90
2023-03-01T06:23:03.508Z,99.90
2023-03-01T07:04:35.879Z,99.90
2023-03-01T07:09:38.786Z,99.90
2023-03-01T07:14:41.442Z,99.90
2023-03-01T07:19:45.907Z,99.90
2023-03-01T07:24:48.597Z,99.90
2023-03-01T07:29:51.223Z,99.90
2023-03-01T07:34:55.222Z,99.90
2023-03-01T07:39:58.646Z,99.90
2023-03-01T07:45:01.363Z,1.00
2023-03-01T07:50:06.417Z,57.00
2023-03-01T07:55:10.093Z,1.00
2023-03-01T08:00:14.065Z,1.00
2023-03-01T08:05:18.580Z,1.00
2023-03-01T08:10:21.281Z,1.00
2023-03-01T08:15:23.941Z,1.00
2023-03-01T08:20:27.960Z,1.00
2023-03-01T08:25:30.606Z,1.00
2023-03-01T08:30:33.620Z,1.00
2023-03-01T08:35:37.675Z,99.90
2023-03-01T08:40:40.331Z,99.90
2023-03-01T08:45:43.045Z,99.90
2023-03-01T08:50:47.015Z,99.90
2023-03-01T08:55:50.783Z,99.90
2023-03-01T09:00:53.511Z,99.90
2023-03-01T09:06:02.567Z,99.90
2023-03-01T09:11:06.869Z,99.90
2023-03-01T09:16:11.144Z,99.90
2023-03-01T09:21:20.994Z,99.90
2023-03-01T09:26:27.741Z,99.90
2023-03-01T09:31:30.425Z,99.90
2023-03-01T09:36:35.033Z,99.90
2023-03-01T09:41:47.437Z,99.90
2023-03-01T09:46:50.732Z,99.90
2023-03-01T09:52:01.499Z,99.90
2023-03-01T09:57:13.551Z,99.90
2023-03-01T10:02:28.530Z,99.90
2023-03-01T10:07:44.626Z,99.90
2023-03-01T10:12:48.070Z,99.90
2023-03-01T10:17:54.719Z,99.90
2023-03-01T10:22:58.783Z,99.90
2023-03-01T10:28:07.393Z,99.90
2023-03-01T10:33:19.094Z,99.90
2023-03-01T10:38:23.436Z,99.90
2023-03-01T10:43:27.447Z,99.90
2023-03-01T10:48:30.093Z,99.90
2023-03-01T10:53:37.102Z,99.90
2023-03-01T10:58:41.372Z,99.90
2023-03-01T11:03:44.087Z,99.90
2023-03-01T11:08:49.493Z,99.90
2023-03-01T11:13:56.018Z,99.90
2023-03-01T11:19:00.993Z,99.90
2023-03-01T11:24:10.441Z,99.90
2023-03-01T11:29:23.370Z,99.90
2023-03-01T11:34:36.199Z,99.90
2023-03-01T11:39:45.218Z,99.90
2023-03-01T11:44:50.196Z,99.90
2023-03-01T11:50:25.161Z,99.90
2023-03-01T11:55:39.368Z,99.90
2023-03-01T12:01:03.210Z,99.90
2023-03-01T12:06:16.834Z,99.90
2023-03-01T12:11:30.510Z,99.90
2023-03-01T12:16:46.471Z,99.90
2023-03-01T12:22:01.140Z,99.90
2023-03-01T12:27:17.183Z,99.90
2023-03-01T12:32:36.606Z,99.90
2023-03-01T12:37:49.533Z,99.90
2023-03-01T12:43:08.742Z,99.90
2023-03-01T12:48:26.075Z,99.90
2023-03-01T12:53:32.579Z,99.90
2023-03-01T12:58:49.828Z,99.90
2023-03-01T13:04:54.868Z,99.90
2023-03-01T13:11:24.407Z,99.90
2023-03-01T13:17:33.425Z,99.90
2023-03-01T13:42:20.331Z,99.90
2023-03-01T13:54:42.800Z,99.90
2023-03-01T13:59:49.441Z,99.90
2023-03-01T14:05:01.109Z,99.90
2023-03-01T14:10:06.336Z,99.90
2023-03-01T14:15:17.815Z,99.90
2023-03-01T14:20:23.571Z,99.90
2023-03-01T14:25:30.730Z,99.90
2023-03-01T14:30:36.912Z,99.90
2023-03-01T14:35:41.238Z,99.90
2023-03-01T14:40:44.511Z,99.90
2023-03-01T14:45:51.507Z,99.90
2023-03-01T14:50:55.876Z,99.90
2023-03-01T14:56:03.480Z,99.90
2023-03-01T15:01:09.280Z,99.90
2023-03-01T15:06:16.742Z,99.90
2023-03-01T15:11:25.270Z,99.90
2023-03-01T15:16:30.889Z,99.90
2023-03-01T15:21:36.850Z,99.90
2023-03-01T15:26:45.169Z,99.90
2023-03-01T15:31:57.016Z,99.90
2023-03-01T15:37:04.074Z,99.90
2023-03-01T15:42:09.775Z,99.90
2023-03-01T15:47:30.855Z,99.90
2023-03-01T15:52:37.650Z,99.90
2023-03-01T15:57:40.886Z,99.90
2023-03-01T16:02:45.067Z,99.90
2023-03-01T16:07:49.101Z,99.90
2023-03-01T16:12:52.567Z,99.90
2023-03-01T16:17:55.288Z,99.90
2023-03-01T16:23:01.984Z,99.90
2023-03-01T16:28:09.811Z,99.90
2023-03-01T16:33:27.644Z,99.90
2023-03-01T16:38:36.573Z,99.90
2023-03-01T16:43:39.265Z,99.90
2023-03-01T16:48:42.104Z,99.90
2023-03-01T16:53:47.663Z,99.90
2023-03-01T16:58:50.424Z,99.90
2023-03-01T17:03:53.710Z,99.90
2023-03-01T17:08:59.062Z,1.00
2023-03-01T17:14:02.056Z,1.00
2023-03-01T17:19:04.813Z,1.00
2023-03-01T17:24:09.109Z,1.00
2023-03-01T17:29:13.208Z,99.90
2023-03-01T17:34:20.153Z,1.00
2023-03-01T17:39:28.641Z,1.00
2023-03-01T17:44:34.506Z,99.90
2023-03-01T17:49:37.520Z,1.00
2023-03-01T17:54:41.533Z,99.90
2023-03-01T17:59:44.426Z,1.00
2023-03-01T18:04:47.637Z,99.90
2023-03-01T18:09:51.664Z,1.00
2023-03-01T18:14:54.613Z,1.00
2023-03-01T18:19:58.896Z,99.10
2023-03-01T18:25:03.188Z,99.90
2023-03-01T18:30:07.320Z,1.00
2023-03-01T18:35:10.354Z,1.00
2023-03-01T18:40:14.734Z,99.90
2023-03-01T18:45:19.337Z,1.00
2023-03-01T18:50:23.328Z,1.00
2023-03-01T18:55:28.691Z,1.00
2023-03-01T19:00:34.465Z,1.00
2023-03-01T19:05:43.999Z,1.00
2023-03-01T19:10:59.755Z,99.90
2023-03-01T19:16:12.972Z,1.00
2023-03-01T19:21:20.331Z,1.00
2023-03-01T19:26:30.912Z,1.00
2023-03-01T19:31:38.987Z,1.00
2023-03-01T19:36:55.022Z,46.80
2023-03-01T19:55:42.893Z,1.00
2023-03-01T20:02:01.398Z,1.00
2023-03-01T20:31:56.760Z,1.00
2023-03-01T20:37:04.363Z,1.00
2023-03-01T20:42:14.108Z,1.00
2023-03-01T20:47:22.067Z,1.00
2023-03-01T20:52:29.220Z,1.00
2023-03-01T20:57:38.450Z,1.00
2023-03-01T21:02:42.484Z,1.00
2023-03-01T21:07:47.774Z,1.00
2023-03-01T21:12:55.612Z,1.00
2023-03-01T21:17:59.987Z,1.00
2023-03-01T21:23:04.748Z,1.00
2023-03-01T21:28:10.020Z,1.00
2023-03-01T21:33:13.684Z,1.00
2023-03-01T22:37:13.093Z,1.00
2023-03-01T22:42:15.828Z,15.60
2023-03-01T22:47:18.518Z,87.40
2023-03-01T22:52:22.548Z,99.90
2023-03-01T22:57:25.236Z,99.90
2023-03-01T23:02:28.432Z,99.90
2023-03-01T23:07:32.504Z,99.90
2023-03-01T23:12:35.177Z,99.90
2023-03-01T23:17:38.041Z,99.90
2023-03-01T23:22:42.351Z,99.90
2023-03-01T23:27:44.984Z,99.90
2023-03-01T23:32:47.625Z,99.90
2023-03-01T23:37:51.614Z,99.90
2023-03-01T23:42:54.253Z,85.90
2023-03-01T23:47:57.147Z,52.10
2023-03-01T23:53:01.231Z,99.90
2023-03-01T23:58:04.295Z,99.90
